createdAt,value
2023-05-12T00:01:19.865Z,8.07
2023-05-12T00:03:46.819Z,8.48
2023-05-12T00:06:13.581Z,8.05
2023-05-12T00:08:40.056Z,8.57
2023-05-12T00:11:06.739Z,8.93
2023-05-12T00:13:33.306Z,7.97
2023-05-12T00:16:00.012Z,8.40
2023-05-12T00:18:28.343Z,9.30
2023-05-12T00:20:55.596Z,8.27
2023-05-12T00:23:22.711Z,9.18
2023-05-12T00:25:49.705Z,9.77
2023-05-12T00:28:17.660Z,8.50
2023-05-12T00:30:44.270Z,11.00
2023-05-12T00:33:11.003Z,9.38
2023-05-12T00:35:37.513Z,9.43
2023-05-12T00:38:04.007Z,11.75
2023-05-12T00:40:30.531Z,8.32
2023-05-12T00:42:56.992Z,9.00
2023-05-12T00:45:23.848Z,9.15
2023-05-12T00:47:52.096Z,7.55
2023-05-12T00:50:19.062Z,7.85
2023-05-12T00:52:47.152Z,8.18
2023-05-12T00:55:21.661Z,8.18
2023-05-12T00:57:48.165Z,8.77
2023-05-12T01:00:21.881Z,8.40
2023-05-12T01:02:49.061Z,7.90
2023-05-12T01:05:17.083Z,8.55
2023-05-12T01:07:46.643Z,8.07
2023-05-12T01:10:21.285Z,8.38
2023-05-12T01:12:48.409Z,7.90
2023-05-12T01:15:15.101Z,8.68
2023-05-12T01:17:47.165Z,8.45
2023-05-12T01:20:16.588Z,10.95
2023-05-12T01:22:43.300Z,8.23
2023-05-12T01:25:14.464Z,8.60
2023-05-12T01:27:42.572Z,8.88
2023-05-12T01:30:11.116Z,8.82
2023-05-12T01:32:39.281Z,8.25
2023-05-12T01:35:06.349Z,8.32
2023-05-12T01:37:32.928Z,8.32
2023-05-12T01:39:59.436Z,9.85
2023-05-12T01:42:25.917Z,10.77
2023-05-12T01:44:52.383Z,9.07
2023-05-12T01:47:18.971Z,8.90
2023-05-12T01:49:45.718Z,9.50
2023-05-12T01:52:12.253Z,11.40
2023-05-12T01:54:38.949Z,9.40
2023-05-12T01:57:11.292Z,9.57
2023-05-12T01:59:37.818Z,11.90
2023-05-12T02:02:04.519Z,10.15
2023-05-12T02:04:31.028Z,9.95
2023-05-12T02:06:57.490Z,10.07
2023-05-12T02:09:23.972Z,8.73
2023-05-12T02:11:50.569Z,9.88
2023-05-12T02:14:17.089Z,10.68
2023-05-12T02:16:43.915Z,10.43
2023-05-12T02:19:10.753Z,9.50
2023-05-12T02:21:37.256Z,9.95
2023-05-12T02:24:03.878Z,11.80
2023-05-12T02:26:36.195Z,9.98
2023-05-12T02:29:02.680Z,9.00
2023-05-12T02:31:29.169Z,10.57
2023-05-12T02:33:55.980Z,9.60
2023-05-12T02:36:22.474Z,8.90
2023-05-12T02:38:48.988Z,10.35
2023-05-12T02:41:15.442Z,10.32
2023-05-12T02:43:41.975Z,12.20
2023-05-12T02:46:08.501Z,8.75
2023-05-12T02:48:35.134Z,10.65
2023-05-12T02:51:01.603Z,8.75
2023-05-12T02:53:34.936Z,9.38
2023-05-12T02:56:01.492Z,11.05
2023-05-12T02:58:28.027Z,9.40
2023-05-12T03:01:06.591Z,9.85
2023-05-12T03:03:38.907Z,9.77
2023-05-12T03:06:06.336Z,9.13
2023-05-12T03:08:33.259Z,10.05
2023-05-12T03:11:00.846Z,9.27
2023-05-12T03:13:27.477Z,11.73
2023-05-12T03:15:55.778Z,10.63
2023-05-12T03:18:22.621Z,9.25
2023-05-12T03:20:49.140Z,10.55
2023-05-12T03:23:16.907Z,10.63
2023-05-12T03:25:43.588Z,9.52
2023-05-12T03:28:13.127Z,9.60
2023-05-12T03:30:39.632Z,9.85
2023-05-12T03:33:06.208Z,9.98
2023-05-12T03:35:32.682Z,10.07
2023-05-12T03:37:59.223Z,11.10
2023-05-12T03:40:25.881Z,9.75
2023-05-12T03:42:52.375Z,10.85
2023-05-12T03:45:19.077Z,11.60
2023-05-12T03:47:45.738Z,11.25
2023-05-12T03:50:12.843Z,9.02
2023-05-12T03:52:41.208Z,9.35
2023-05-12T03:55:08.218Z,9.23
2023-05-12T03:57:36.526Z,8.85
2023-05-12T04:00:06.988Z,8.95
2023-05-12T04:02:34.629Z,11.65
2023-05-12T04:05:01.243Z,9.73
2023-05-12T04:07:27.824Z,9.80
2023-05-12T04:09:54.313Z,9.00
2023-05-12T04:12:20.800Z,10.27
2023-05-12T04:14:48.363Z,10.20
2023-05-12T04:17:14.906Z,9.90
2023-05-12T04:19:42.776Z,11.10
2023-05-12T04:22:09.352Z,11.52
2023-05-12T04:24:37.657Z,9.30
2023-05-12T04:27:04.468Z,8.98
2023-05-12T04:29:31.926Z,8.75
2023-05-12T04:32:00.203Z,9.68
2023-05-12T04:34:26.727Z,8.27
2023-05-12T04:36:53.476Z,8.85
2023-05-12T04:39:30.276Z,9.38
2023-05-12T04:41:56.758Z,12.63
2023-05-12T04:44:24.292Z,12.95
2023-05-12T04:46:53.385Z,9.57
2023-05-12T04:49:19.906Z,9.82
2023-05-12T04:51:46.343Z,8.70
2023-05-12T04:54:14.835Z,9.57
2023-05-12T04:56:41.314Z,10.50
2023-05-12T04:59:07.842Z,8.70
2023-05-12T05:01:34.375Z,10.93
2023-05-12T05:04:00.868Z,9.15
2023-05-12T05:06:28.214Z,10.63
2023-05-12T05:08:56.034Z,9.27
2023-05-12T05:11:23.101Z,10.00
2023-05-12T05:13:49.689Z,8.48
2023-05-12T05:16:16.294Z,8.35
2023-05-12T05:18:46.770Z,9.02
2023-05-12T05:21:16.802Z,8.80
2023-05-12T05:23:43.286Z,9.50
2023-05-12T05:26:09.886Z,11.02
2023-05-12T05:28:37.365Z,9.88
2023-05-12T05:31:03.907Z,9.98
2023-05-12T05:33:30.401Z,8.77
2023-05-12T05:35:57.083Z,10.00
2023-05-12T05:38:23.623Z,9.13
2023-05-12T05:40:53.819Z,8.27
2023-05-12T05:43:21.991Z,8.83
2023-05-12T05:45:49.884Z,10.43
2023-05-12T05:48:16.580Z,8.65
2023-05-12T05:50:43.281Z,8.95
2023-05-12T05:53:09.770Z,8.07
2023-05-12T05:55:38.247Z,8.50
2023-05-12T05:58:05.565Z,10.45
2023-05-12T06:00:32.056Z,9.40
2023-05-12T06:02:58.901Z,8.20
2023-05-12T06:05:25.452Z,9.75
2023-05-12T06:07:55.115Z,8.82
2023-05-12T06:10:21.909Z,8.13
2023-05-12T06:12:51.706Z,7.95
2023-05-12T06:15:19.449Z,9.30
2023-05-12T06:17:46.201Z,8.30
2023-05-12T06:20:13.501Z,9.73
2023-05-12T06:22:42.363Z,8.35
2023-05-12T06:25:09.755Z,9.30
2023-05-12T06:27:36.696Z,8.88
2023-05-12T06:30:04.281Z,8.82
2023-05-12T06:32:30.904Z,8.38
2023-05-12T06:34:57.447Z,9.02
2023-05-12T06:37:23.918Z,8.55
2023-05-12T06:39:50.389Z,9.18
2023-05-12T06:42:16.870Z,9.73
2023-05-12T06:44:43.486Z,11.00
2023-05-12T06:47:14.953Z,10.13
2023-05-12T06:49:41.476Z,9.05
2023-05-12T06:52:10.029Z,9.38
2023-05-12T06:54:36.524Z,8.65
2023-05-12T06:57:03.005Z,10.55
2023-05-12T06:59:29.673Z,11.38
2023-05-12T07:01:56.164Z,8.35
2023-05-12T07:04:23.438Z,8.55
2023-05-12T07:06:56.868Z,10.02
2023-05-12T07:09:23.350Z,9.02
2023-05-12T07:11:49.862Z,7.80
2023-05-12T07:14:16.490Z,9.27
2023-05-12T07:16:43.022Z,9.25
2023-05-12T07:19:09.687Z,9.27
2023-05-12T07:21:41.848Z,8.23
2023-05-12T07:24:08.393Z,11.40
2023-05-12T07:26:34.902Z,8.65
2023-05-12T07:29:02.541Z,9.57
2023-05-12T07:31:29.192Z,9.13
2023-05-12T07:33:55.780Z,10.32
2023-05-12T07:36:22.350Z,10.27
2023-05-12T07:38:48.940Z,9.00
2023-05-12T07:41:15.503Z,8.32
2023-05-12T07:43:42.007Z,9.05
2023-05-12T07:46:08.878Z,11.93
2023-05-12T07:48:39.860Z,7.70
2023-05-12T07:51:07.893Z,7.63
2023-05-12T07:53:41.532Z,8.85
2023-05-12T07:56:08.315Z,7.15
2023-05-12T07:58:34.767Z,7.50
2023-05-12T08:01:05.987Z,9.02
2023-05-12T08:03:33.553Z,8.32
2023-05-12T08:06:00.363Z,8.00
2023-05-12T08:08:34.629Z,8.13
2023-05-12T08:11:01.107Z,9.52
2023-05-12T08:13:27.672Z,7.70
2023-05-12T08:15:54.182Z,14.50
2023-05-12T08:18:21.297Z,7.95
2023-05-12T08:20:50.192Z,8.23
2023-05-12T08:23:17.580Z,9.02
2023-05-12T08:25:44.606Z,8.82
2023-05-12T08:28:12.971Z,7.75
2023-05-12T08:30:39.816Z,9.18
2023-05-12T08:33:06.513Z,9.13
2023-05-12T08:35:33.121Z,9.70
2023-05-12T08:37:59.714Z,9.98
2023-05-12T08:40:29.757Z,9.77
2023-05-12T08:43:38.980Z,9.20
2023-05-12T08:46:06.189Z,8.20
2023-05-12T08:48:35.392Z,8.75
2023-05-12T08:51:03.324Z,8.02
2023-05-12T08:53:33.530Z,9.07
2023-05-12T08:57:09.852Z,10.13
2023-05-12T08:58:49.851Z,7.95
2023-05-12T09:01:18.025Z,9.73
2023-05-12T09:03:45.395Z,9.88
2023-05-12T09:06:13.356Z,8.43
2023-05-12T09:08:41.093Z,8.85
2023-05-12T09:11:12.521Z,7.90
2023-05-12T09:13:52.799Z,8.45
2023-05-12T09:16:24.159Z,8.43
2023-05-12T09:18:53.047Z,8.32
2023-05-12T09:21:20.108Z,8.20
2023-05-12T09:24:06.950Z,8.07
2023-05-12T09:26:49.336Z,8.40
2023-05-12T09:29:24.308Z,8.18
2023-05-12T09:31:58.685Z,7.93
2023-05-12T09:34:30.996Z,9.05
2023-05-12T09:37:00.028Z,8.18
2023-05-12T09:39:27.066Z,9.25
2023-05-12T09:41:53.937Z,7.28
2023-05-12T09:44:21.492Z,7.70
2023-05-12T09:46:49.056Z,8.45
2023-05-12T09:49:25.982Z,7.82
2023-05-12T09:51:59.900Z,7.50
2023-05-12T09:54:31.022Z,8.45
2023-05-12T09:57:00.406Z,6.40
2023-05-12T09:59:32.772Z,6.65
2023-05-12T10:02:01.574Z,7.30
2023-05-12T10:04:32.220Z,7.70
2023-05-12T10:06:59.531Z,7.30
2023-05-12T10:09:30.933Z,6.88
2023-05-12T10:11:58.239Z,6.47
2023-05-12T10:14:25.936Z,8.65
2023-05-12T10:16:53.974Z,6.72
2023-05-12T10:19:21.444Z,10.45
2023-05-12T10:21:48.840Z,7.00
2023-05-12T10:24:16.874Z,7.00
2023-05-12T10:26:44.772Z,7.05
2023-05-12T10:29:12.766Z,7.20
2023-05-12T10:31:40.075Z,7.50
2023-05-12T10:34:07.080Z,6.40
2023-05-12T10:36:50.929Z,6.35
2023-05-12T10:39:18.332Z,7.25
2023-05-12T10:41:44.813Z,5.15
2023-05-12T10:44:11.538Z,4.85
2023-05-12T10:46:38.565Z,6.95
2023-05-12T10:49:13.044Z,5.25
2023-05-12T10:51:42.498Z,3.78
2023-05-12T10:54:10.943Z,5.47
2023-05-12T10:56:38.380Z,4.80
2023-05-12T10:59:12.044Z,6.72
2023-05-12T11:01:42.963Z,5.38
2023-05-12T11:04:15.179Z,5.82
2023-05-12T11:06:44.969Z,4.75
2023-05-12T11:09:13.386Z,5.88
2023-05-12T11:11:40.482Z,5.72
2023-05-12T11:14:08.273Z,5.50
2023-05-12T11:16:41.125Z,5.60
2023-05-12T11:19:07.731Z,4.68
2023-05-12T11:21:34.651Z,3.92
2023-05-12T11:24:02.223Z,5.88
2023-05-12T11:26:30.050Z,6.03
2023-05-12T11:28:59.849Z,6.80
2023-05-12T11:31:26.813Z,6.00
2023-05-12T11:34:12.453Z,7.53
2023-05-12T11:36:42.401Z,5.35
2023-05-12T11:39:25.685Z,6.97
2023-05-12T11:41:59.354Z,6.03
2023-05-12T11:44:32.516Z,5.72
2023-05-12T11:47:11.715Z,6.70
2023-05-12T11:49:52.387Z,6.43
2023-05-12T11:52:20.486Z,6.38
2023-05-12T11:54:51.859Z,9.50
2023-05-12T11:57:35.155Z,6.82
2023-05-12T12:00:09.793Z,6.57
2023-05-12T12:02:43.280Z,6.55
2023-05-12T12:05:18.281Z,7.43
2023-05-12T12:07:45.264Z,8.55
2023-05-12T12:10:18.848Z,8.05
2023-05-12T12:12:46.031Z,6.85
2023-05-12T12:15:13.230Z,5.95
2023-05-12T12:17:40.895Z,5.68
2023-05-12T12:20:09.235Z,5.72
2023-05-12T12:22:36.087Z,7.43
2023-05-12T12:25:03.099Z,6.75
2023-05-12T12:27:29.685Z,6.38
2023-05-12T12:29:56.490Z,7.10
2023-05-12T12:32:22.988Z,6.07
2023-05-12T12:34:49.605Z,7.63
2023-05-12T12:37:17.303Z,4.88
2023-05-12T12:39:43.854Z,6.15
2023-05-12T12:42:10.361Z,6.53
2023-05-12T12:44:36.838Z,5.40
2023-05-12T12:47:03.718Z,4.57
2023-05-12T12:49:30.231Z,6.50
2023-05-12T12:51:56.734Z,5.25
2023-05-12T12:54:25.166Z,5.07
2023-05-12T12:56:51.701Z,5.97
2023-05-12T12:59:18.299Z,6.07
2023-05-12T13:01:44.843Z,6.05
2023-05-12T13:04:11.353Z,6.05
2023-05-12T13:06:37.805Z,7.35
2023-05-12T13:09:04.444Z,6.70
2023-05-12T13:11:31.016Z,6.07
2023-05-12T13:13:57.481Z,6.72
2023-05-12T13:16:23.958Z,6.90
2023-05-12T13:18:50.811Z,6.18
2023-05-12T13:21:18.883Z,6.40
2023-05-12T13:23:45.376Z,8.95
2023-05-12T13:26:11.934Z,5.25
2023-05-12T13:28:38.404Z,6.40
2023-05-12T13:31:06.179Z,6.25
2023-05-12T13:33:32.798Z,6.75
2023-05-12T13:35:59.380Z,7.55
2023-05-12T13:38:26.437Z,6.72
2023-05-12T13:40:54.446Z,6.70
2023-05-12T13:43:21.525Z,6.53
2023-05-12T13:45:48.126Z,6.78
2023-05-12T13:48:14.631Z,6.35
2023-05-12T13:50:41.468Z,5.22
2023-05-12T13:53:07.924Z,6.93
2023-05-12T13:55:40.653Z,5.95
2023-05-12T13:58:07.628Z,6.50
2023-05-12T14:00:34.150Z,5.57
2023-05-12T14:03:00.709Z,5.60
2023-05-12T14:05:27.500Z,7.32
2023-05-12T14:07:54.078Z,5.72
2023-05-12T14:10:20.598Z,6.88
2023-05-12T14:12:47.986Z,6.63
2023-05-12T14:15:29.644Z,7.18
2023-05-12T14:18:01.012Z,6.05
2023-05-12T14:20:27.541Z,6.00
2023-05-12T14:22:55.698Z,8.25
2023-05-12T14:25:23.980Z,6.03
2023-05-12T14:27:50.858Z,7.93
2023-05-12T14:30:17.943Z,6.88
2023-05-12T14:32:44.523Z,5.25
2023-05-12T14:35:11.001Z,7.03
2023-05-12T14:37:37.542Z,7.25
2023-05-12T14:40:05.430Z,6.50
2023-05-12T14:42:32.388Z,7.43
2023-05-12T14:44:59.346Z,7.65
2023-05-12T14:47:26.002Z,5.60
2023-05-12T14:49:52.556Z,5.75
2023-05-12T14:52:19.066Z,6.45
2023-05-12T14:54:45.629Z,6.43
2023-05-12T14:57:13.601Z,6.63
2023-05-12T14:59:41.273Z,4.63
2023-05-12T15:02:07.962Z,7.80
2023-05-12T15:04:34.569Z,4.80
2023-05-12T15:07:01.042Z,5.15
2023-05-12T15:09:27.575Z,4.38
2023-05-12T15:11:55.123Z,5.45
2023-05-12T15:14:21.896Z,5.03
2023-05-12T15:16:48.580Z,5.90
2023-05-12T15:19:17.517Z,4.65
2023-05-12T15:21:44.159Z,4.60
2023-05-12T15:24:10.629Z,7.43
2023-05-12T15:26:39.494Z,8.93
2023-05-12T15:29:07.294Z,8.02
2023-05-12T15:31:33.893Z,6.70
2023-05-12T15:34:00.590Z,5.25
2023-05-12T15:36:27.087Z,5.78
2023-05-12T15:38:56.632Z,4.57
2023-05-12T15:41:23.261Z,5.25
2023-05-12T15:43:49.725Z,6.00
2023-05-12T15:46:16.440Z,5.93
2023-05-12T15:48:42.934Z,4.85
2023-05-12T15:51:09.431Z,4.18
2023-05-12T15:53:36.261Z,5.90
2023-05-12T15:56:03.969Z,5.00
2023-05-12T15:58:30.748Z,3.90
2023-05-12T16:00:57.324Z,4.93
2023-05-12T16:03:24.026Z,5.70
2023-05-12T16:05:50.844Z,3.75
2023-05-12T16:08:17.732Z,5.10
2023-05-12T16:10:44.928Z,4.63
2023-05-12T16:13:11.581Z,4.03
2023-05-12T16:15:38.081Z,5.38
2023-05-12T16:18:09.102Z,5.05
2023-05-12T16:20:37.566Z,6.47
2023-05-12T16:23:04.022Z,4.63
2023-05-12T16:25:30.566Z,9.32
2023-05-12T16:27:57.136Z,3.90
2023-05-12T16:30:25.052Z,5.88
2023-05-12T16:32:51.586Z,5.97
2023-05-12T16:35:18.262Z,4.80
2023-05-12T16:37:44.906Z,2.70
2023-05-12T16:40:12.165Z,5.25
2023-05-12T16:42:39.689Z,4.13
2023-05-12T16:45:06.823Z,3.67
2023-05-12T16:47:33.375Z,3.85
2023-05-12T16:49:59.975Z,4.78
2023-05-12T16:52:26.891Z,2.80
2023-05-12T16:54:55.893Z,4.57
2023-05-12T16:57:22.403Z,4.53
2023-05-12T16:59:48.869Z,3.67
2023-05-12T17:02:15.889Z,5.50
2023-05-12T17:04:42.605Z,3.97
2023-05-12T17:07:09.685Z,3.83
2023-05-12T17:09:36.652Z,2.85
2023-05-12T17:12:04.551Z,3.22
2023-05-12T17:14:31.311Z,3.53
2023-05-12T17:16:57.865Z,3.22
2023-05-12T17:19:24.451Z,2.95
2023-05-12T17:21:50.913Z,3.10
2023-05-12T17:24:17.708Z,2.40
2023-05-12T17:26:44.862Z,3.67
2023-05-12T17:29:11.306Z,4.88
2023-05-12T17:31:38.657Z,2.95
2023-05-12T17:34:05.566Z,3.83
2023-05-12T17:36:33.012Z,3.67
2023-05-12T17:39:00.057Z,3.83
2023-05-12T17:41:28.919Z,3.33
2023-05-12T17:43:55.818Z,5.30
2023-05-12T17:46:23.010Z,5.18
2023-05-12T17:48:49.683Z,8.27
2023-05-12T17:51:16.301Z,2.75
2023-05-12T17:53:44.041Z,4.13
2023-05-12T17:56:11.535Z,3.50
2023-05-12T17:58:38.513Z,4.40
2023-05-12T18:01:05.094Z,26.02
2023-05-12T18:03:31.740Z,11.10
2023-05-12T18:05:58.243Z,7.85
2023-05-12T18:08:24.702Z,8.55
2023-05-12T18:10:51.217Z,12.75
2023-05-12T18:13:17.763Z,7.50
2023-05-12T18:15:44.273Z,5.22
2023-05-12T18:18:10.914Z,3.13
2023-05-12T18:20:37.759Z,3.53
2023-05-12T18:23:04.434Z,4.57
2023-05-12T18:25:31.232Z,1.27
2023-05-12T18:27:57.746Z,2.78
2023-05-12T18:30:24.192Z,2.65
2023-05-12T18:32:51.027Z,2.67
2023-05-12T18:35:18.041Z,4.53
2023-05-12T18:37:45.068Z,2.63
2023-05-12T18:40:12.183Z,2.35
2023-05-12T18:42:38.999Z,2.95
2023-05-12T18:45:06.167Z,3.10
2023-05-12T18:47:33.484Z,4.93
2023-05-12T18:50:00.095Z,3.25
2023-05-12T18:52:26.609Z,2.67
2023-05-12T18:54:54.045Z,3.30
2023-05-12T18:57:20.862Z,3.88
2023-05-12T18:59:47.356Z,2.22
2023-05-12T19:02:13.817Z,2.63
2023-05-12T19:04:40.501Z,2.28
2023-05-12T19:07:09.824Z,3.33
2023-05-12T19:09:37.234Z,2.75
2023-05-12T19:12:06.127Z,7.43
2023-05-12T19:14:32.869Z,15.63
2023-05-12T19:16:59.385Z,8.57
2023-05-12T19:19:25.885Z,11.13
2023-05-12T19:21:53.155Z,8.77
2023-05-12T19:24:19.645Z,13.38
2023-05-12T19:26:46.379Z,7.60
2023-05-12T19:29:12.991Z,8.93
2023-05-12T19:31:39.590Z,6.13
2023-05-12T19:34:07.080Z,4.03
2023-05-12T19:36:33.804Z,9.70
2023-05-12T19:39:00.497Z,5.80
2023-05-12T19:41:30.045Z,10.60
2023-05-12T19:43:56.626Z,16.13
2023-05-12T19:46:23.392Z,8.43
2023-05-12T19:48:51.005Z,13.13
2023-05-12T19:51:17.558Z,11.02
2023-05-12T19:53:44.474Z,12.07
2023-05-12T19:56:11.177Z,11.73
2023-05-12T19:58:38.367Z,8.32
2023-05-12T20:01:05.068Z,6.63
2023-05-12T20:03:32.939Z,4.43
2023-05-12T20:05:59.486Z,6.55
2023-05-12T20:08:25.968Z,5.78
2023-05-12T20:10:52.429Z,5.07
2023-05-12T20:13:18.892Z,4.57
2023-05-12T20:15:45.363Z,5.18
2023-05-12T20:18:14.607Z,6.40
2023-05-12T20:20:42.237Z,5.03
2023-05-12T20:23:08.968Z,4.47
2023-05-12T20:25:36.200Z,5.82
2023-05-12T20:28:03.008Z,5.45
2023-05-12T20:30:29.984Z,6.28
2023-05-12T20:32:56.670Z,6.40
2023-05-12T20:35:23.442Z,4.95
2023-05-12T20:37:50.611Z,5.82
2023-05-12T20:40:17.230Z,4.22
2023-05-12T20:42:49.011Z,8.15
2023-05-12T20:45:16.319Z,5.20
2023-05-12T20:47:42.917Z,4.95
2023-05-12T20:50:09.990Z,4.72
2023-05-12T20:52:40.097Z,5.30
2023-05-12T20:55:07.249Z,5.25
2023-05-12T20:57:34.060Z,5.15
2023-05-12T21:00:00.675Z,5.50
2023-05-12T21:02:28.616Z,5.72
2023-05-12T21:04:55.790Z,5.95
2023-05-12T21:07:22.384Z,6.15
2023-05-12T21:09:49.071Z,5.32
2023-05-12T21:12:15.498Z,4.50
2023-05-12T21:14:44.053Z,6.25
2023-05-12T21:17:12.105Z,4.53
2023-05-12T21:19:40.033Z,5.20
2023-05-12T21:22:07.922Z,6.93
2023-05-12T21:24:36.430Z,5.28
2023-05-12T21:27:04.214Z,4.32
2023-05-12T21:29:31.546Z,6.53
2023-05-12T21:31:58.150Z,4.68
2023-05-12T21:34:24.862Z,5.45
2023-05-12T21:36:51.705Z,5.60
2023-05-12T21:39:18.182Z,5.63
2023-05-12T21:41:44.670Z,6.38
2023-05-12T21:44:12.201Z,6.00
2023-05-12T21:46:38.860Z,5.38
2023-05-12T21:49:05.429Z,5.07
2023-05-12T21:51:34.536Z,5.00
2023-05-12T21:54:02.009Z,6.75
2023-05-12T21:56:28.588Z,5.68
2023-05-12T21:58:55.648Z,5.32
2023-05-12T22:01:22.165Z,5.65
2023-05-12T22:03:49.387Z,5.25
2023-05-12T22:06:15.967Z,5.32
2023-05-12T22:08:43.615Z,5.95
2023-05-12T22:11:10.774Z,6.63
2023-05-12T22:13:37.520Z,5.85
2023-05-12T22:16:04.320Z,6.07
2023-05-12T22:18:30.960Z,6.28
2023-05-12T22:20:57.518Z,5.40
2023-05-12T22:23:23.970Z,5.63
2023-05-12T22:25:50.652Z,7.03
2023-05-12T22:28:18.225Z,6.10
2023-05-12T22:30:44.655Z,7.90
2023-05-12T22:33:11.302Z,6.72
2023-05-12T22:35:37.938Z,6.05
2023-05-12T22:38:04.435Z,5.22
2023-05-12T22:40:31.339Z,6.47
2023-05-12T22:42:57.886Z,5.80
2023-05-12T22:45:25.444Z,5.32
2023-05-12T22:47:52.299Z,5.05
2023-05-12T22:50:19.256Z,5.57
2023-05-12T22:52:46.071Z,5.38
2023-05-12T22:55:12.645Z,5.60
2023-05-12T22:57:40.860Z,5.68
2023-05-12T23:00:07.881Z,7.25
2023-05-12T23:02:34.401Z,6.25
2023-05-12T23:05:01.148Z,5.28
2023-05-12T23:07:27.840Z,7.03
2023-05-12T23:09:54.285Z,5.65
2023-05-12T23:12:20.769Z,6.57
2023-05-12T23:14:47.283Z,5.15
2023-05-12T23:17:14.833Z,5.72
2023-05-12T23:19:41.395Z,7.35
2023-05-12T23:22:07.855Z,7.85
2023-05-12T23:24:36.054Z,7.43
2023-05-12T23:27:02.587Z,6.65
2023-05-12T23:29:29.076Z,7.20
2023-05-12T23:31:58.713Z,7.22
2023-05-12T23:34:25.828Z,7.55
2023-05-12T23:36:52.452Z,7.35
2023-05-12T23:39:18.995Z,6.45
2023-05-12T23:41:45.670Z,6.40
2023-05-12T23:44:12.929Z,7.05
2023-05-12T23:46:39.552Z,5.63
2023-05-12T23:49:06.426Z,8.30
2023-05-12T23:51:33.265Z,6.70
2023-05-12T23:54:00.062Z,7.10
2023-05-12T23:56:26.607Z,7.60
2023-05-12T23:58:53.137Z,5.82
